Terminal Aerodrome Forecast
Issued by NWS Paducah, KY

Home | Current Version | Previous Version | Text Only | Print | Product List | Glossary On
Versions: 1 2 3 4 5 6 7 8 9 10 11 12 13 14 15 16
282
FTUS43 KPAH 091906 AAB
TAFPAH
TAF AMD
KPAH 091906Z 0919/1018 31012G20KT P6SM OVC040
     FM100000 29005KT P6SM SKC
     FM101400 22010G16KT P6SM SKC=

USA.gov is the U.S. government's official web portal to all federal, state and local government web resources and services.